createdAt,value
2018-10-05T00:01:12.554Z,6.20
2018-10-05T00:03:40.757Z,5.40
2018-10-05T00:06:08.903Z,5.03
2018-10-05T00:08:37.093Z,5.62
2018-10-05T00:11:05.497Z,6.25
2018-10-05T00:13:33.635Z,5.70
2018-10-05T00:16:01.829Z,6.78
2018-10-05T00:18:29.976Z,5.87
2018-10-05T00:20:58.123Z,6.12
2018-10-05T00:23:26.266Z,6.87
2018-10-05T00:25:54.416Z,6.05
2018-10-05T00:28:22.547Z,7.00
2018-10-05T00:30:50.687Z,6.30
2018-10-05T00:33:18.835Z,6.80
2018-10-05T00:35:46.976Z,6.05
2018-10-05T00:38:15.330Z,6.45
2018-10-05T00:40:43.496Z,5.85
2018-10-05T00:43:11.640Z,6.10
2018-10-05T00:45:39.784Z,6.40
2018-10-05T00:48:07.932Z,6.67
2018-10-05T00:50:36.092Z,6.33
2018-10-05T00:53:04.298Z,6.67
2018-10-05T00:55:32.397Z,6.70
2018-10-05T00:58:00.547Z,6.85
2018-10-05T01:00:28.900Z,6.62
2018-10-05T01:02:57.068Z,7.08
2018-10-05T01:05:25.227Z,8.10
2018-10-05T01:07:54.090Z,6.83
2018-10-05T01:10:22.231Z,6.95
2018-10-05T01:12:50.400Z,8.05
2018-10-05T01:15:18.626Z,7.20
2018-10-05T01:17:46.760Z,6.08
2018-10-05T01:20:14.907Z,7.05
2018-10-05T01:22:43.067Z,6.40
2018-10-05T01:25:11.210Z,6.87
2018-10-05T01:27:39.378Z,6.60
2018-10-05T01:30:10.803Z,6.33
2018-10-05T01:32:39.140Z,6.03
2018-10-05T01:35:07.291Z,6.97
2018-10-05T01:37:35.532Z,6.33
2018-10-05T01:40:03.664Z,7.75
2018-10-05T01:42:31.819Z,6.30
2018-10-05T01:44:59.951Z,6.85
2018-10-05T01:47:28.102Z,6.95
2018-10-05T01:49:56.285Z,6.42
2018-10-05T01:52:24.434Z,6.55
2018-10-05T01:54:52.565Z,5.95
2018-10-05T01:57:20.700Z,6.17
2018-10-05T01:59:48.892Z,5.75
2018-10-05T02:02:17.032Z,5.40
2018-10-05T02:04:45.217Z,5.12
2018-10-05T02:07:13.331Z,5.60
2018-10-05T02:09:41.468Z,5.62
2018-10-05T02:12:09.606Z,5.55
2018-10-05T02:14:37.756Z,5.40
2018-10-05T02:17:06.006Z,5.20
2018-10-05T02:19:34.127Z,5.97
2018-10-05T02:22:02.263Z,5.35
2018-10-05T02:24:30.400Z,4.85
2018-10-05T02:26:58.517Z,4.90
2018-10-05T02:29:26.659Z,5.67
2018-10-05T02:31:54.800Z,5.60
2018-10-05T02:34:22.937Z,4.50
2018-10-05T02:36:51.063Z,5.37
2018-10-05T02:39:19.204Z,4.78
2018-10-05T02:41:47.499Z,4.42
2018-10-05T02:44:15.528Z,5.45
2018-10-05T02:46:43.663Z,4.35
2018-10-05T02:49:11.809Z,5.12
2018-10-05T02:51:39.947Z,5.67
2018-10-05T02:54:08.081Z,4.85
2018-10-05T02:56:36.221Z,4.08
2018-10-05T02:59:04.376Z,4.65
2018-10-05T03:01:44.074Z,4.40
2018-10-05T03:04:12.212Z,4.92
2018-10-05T03:06:40.374Z,5.40
2018-10-05T03:09:08.510Z,4.53
2018-10-05T03:11:36.660Z,5.12
2018-10-05T03:14:04.852Z,4.58
2018-10-05T03:16:33.025Z,4.17
2018-10-05T03:19:01.181Z,4.62
2018-10-05T03:21:29.328Z,4.50
2018-10-05T03:23:57.498Z,4.25
2018-10-05T03:26:25.667Z,4.53
2018-10-05T03:28:53.807Z,3.87
2018-10-05T03:31:21.996Z,4.55
2018-10-05T03:33:50.233Z,4.60
2018-10-05T03:36:18.352Z,4.75
2018-10-05T03:38:46.499Z,4.45
2018-10-05T03:41:14.648Z,4.45
2018-10-05T03:43:42.797Z,5.00
2018-10-05T03:46:10.943Z,4.28
2018-10-05T03:48:39.091Z,4.42
2018-10-05T03:51:07.251Z,4.65
2018-10-05T03:53:35.626Z,4.17
2018-10-05T03:56:03.930Z,4.78
2018-10-05T03:58:32.070Z,4.20
2018-10-05T04:01:00.251Z,4.37
2018-10-05T04:03:28.433Z,5.03
2018-10-05T04:05:56.587Z,4.10
2018-10-05T04:08:24.712Z,4.47
2018-10-05T04:10:52.951Z,4.53
2018-10-05T04:13:21.263Z,4.17
2018-10-05T04:15:49.453Z,3.95
2018-10-05T04:18:17.601Z,4.42
2018-10-05T04:20:45.773Z,4.00
2018-10-05T04:23:14.130Z,4.40
2018-10-05T04:25:42.275Z,4.17
2018-10-05T04:28:10.404Z,4.70
2018-10-05T04:30:38.554Z,4.30
2018-10-05T04:33:06.696Z,3.83
2018-10-05T04:35:34.960Z,4.10
2018-10-05T04:38:03.032Z,4.17
2018-10-05T04:40:31.166Z,3.98
2018-10-05T04:42:59.327Z,4.30
2018-10-05T04:45:27.492Z,4.17
2018-10-05T04:47:55.642Z,4.95
2018-10-05T04:50:23.765Z,4.40
2018-10-05T04:52:52.203Z,4.62
2018-10-05T04:55:20.418Z,3.70
2018-10-05T04:57:48.597Z,3.70
2018-10-05T05:00:16.730Z,4.22
2018-10-05T05:02:44.903Z,3.80
2018-10-05T05:05:13.031Z,3.60
2018-10-05T05:07:41.151Z,3.47
2018-10-05T05:10:09.317Z,3.45
2018-10-05T05:12:37.494Z,4.62
2018-10-05T05:15:06.591Z,4.33
2018-10-05T05:17:34.808Z,4.80
2018-10-05T05:20:02.992Z,3.90
2018-10-05T05:22:31.171Z,3.92
2018-10-05T05:24:59.323Z,4.35
2018-10-05T05:27:27.497Z,4.20
2018-10-05T05:29:55.633Z,4.45
2018-10-05T05:32:23.768Z,4.35
2018-10-05T05:34:51.891Z,4.65
2018-10-05T05:37:20.051Z,4.30
2018-10-05T05:39:48.250Z,3.60
2018-10-05T05:42:16.401Z,4.35
2018-10-05T05:44:44.550Z,4.10
2018-10-05T05:47:12.679Z,3.72
2018-10-05T05:49:40.825Z,3.90
2018-10-05T05:52:09.034Z,3.83
2018-10-05T05:54:37.194Z,4.22
2018-10-05T05:57:05.395Z,3.90
2018-10-05T05:59:33.578Z,4.10
2018-10-05T06:02:01.712Z,4.50
2018-10-05T06:04:29.862Z,4.15
2018-10-05T06:06:58.072Z,3.42
2018-10-05T06:09:26.222Z,3.90
2018-10-05T06:11:54.423Z,3.60
2018-10-05T06:14:22.567Z,3.60
2018-10-05T06:16:50.703Z,3.90
2018-10-05T06:19:18.844Z,3.62
2018-10-05T06:21:47.200Z,4.50
2018-10-05T06:24:15.148Z,4.20
2018-10-05T06:26:43.302Z,4.10
2018-10-05T06:29:11.495Z,3.47
2018-10-05T06:31:39.661Z,4.00
2018-10-05T06:34:07.915Z,3.90
2018-10-05T06:36:36.100Z,4.17
2018-10-05T06:39:05.528Z,3.80
2018-10-05T06:41:33.682Z,3.60
2018-10-05T06:44:01.799Z,3.83
2018-10-05T06:46:29.968Z,4.58
2018-10-05T06:48:58.127Z,3.80
2018-10-05T06:51:26.282Z,3.40
2018-10-05T06:53:54.439Z,5.60
2018-10-05T06:56:22.586Z,4.65
2018-10-05T06:58:50.756Z,5.22
2018-10-05T07:01:19.043Z,4.22
2018-10-05T07:03:47.153Z,4.58
2018-10-05T07:06:15.323Z,5.08
2018-10-05T07:08:43.450Z,5.00
2018-10-05T07:11:11.587Z,4.20
2018-10-05T07:13:39.747Z,4.87
2018-10-05T07:16:08.055Z,4.40
2018-10-05T07:18:36.396Z,4.73
2018-10-05T07:21:04.568Z,4.20
2018-10-05T07:23:32.710Z,5.10
2018-10-05T07:26:01.022Z,6.00
2018-10-05T07:28:29.303Z,5.03
2018-10-05T07:30:57.319Z,4.30
2018-10-05T07:33:25.470Z,4.83
2018-10-05T07:35:53.709Z,4.70
2018-10-05T07:38:21.846Z,4.10
2018-10-05T07:40:49.982Z,4.40
2018-10-05T07:43:18.123Z,4.33
2018-10-05T07:45:46.258Z,4.67
2018-10-05T07:48:14.404Z,4.23
2018-10-05T07:50:42.561Z,4.37
2018-10-05T07:53:10.743Z,4.90
2018-10-05T07:55:38.871Z,4.20
2018-10-05T07:58:07.055Z,4.60
2018-10-05T08:00:35.182Z,4.37
2018-10-05T08:03:03.359Z,5.53
2018-10-05T08:05:31.511Z,4.50
2018-10-05T08:07:59.663Z,4.63
2018-10-05T08:10:27.807Z,4.67
2018-10-05T08:12:55.950Z,4.00
2018-10-05T08:15:24.102Z,4.80
2018-10-05T08:17:52.326Z,3.93
2018-10-05T08:20:20.482Z,4.00
2018-10-05T08:22:48.637Z,4.27
2018-10-05T08:25:16.774Z,5.57
2018-10-05T08:27:44.915Z,4.67
2018-10-05T08:30:13.047Z,4.73
2018-10-05T08:32:41.226Z,4.77
2018-10-05T08:35:09.352Z,4.00
2018-10-05T08:37:37.560Z,4.30
2018-10-05T08:40:06.894Z,3.93
2018-10-05T08:42:35.096Z,4.00
2018-10-05T08:45:03.372Z,5.27
2018-10-05T08:47:31.536Z,3.30
2018-10-05T08:50:00.012Z,3.90
2018-10-05T08:52:28.135Z,3.53
2018-10-05T08:54:56.259Z,3.97
2018-10-05T08:57:24.415Z,3.90
2018-10-05T08:59:52.655Z,3.57
2018-10-05T09:02:20.770Z,3.40
2018-10-05T09:04:48.959Z,2.90
2018-10-05T09:07:20.072Z,3.60
2018-10-05T09:09:49.406Z,3.43
2018-10-05T09:12:18.217Z,3.20
2018-10-05T09:14:46.598Z,2.67
2018-10-05T09:17:15.646Z,3.23
2018-10-05T09:19:44.791Z,3.10
2018-10-05T09:22:14.394Z,3.03
2018-10-05T09:24:42.989Z,3.80
2018-10-05T09:27:11.325Z,3.77
2018-10-05T09:29:39.524Z,3.60
2018-10-05T09:32:08.408Z,4.90
2018-10-05T09:34:36.778Z,3.40
2018-10-05T09:37:05.509Z,4.50
2018-10-05T09:39:34.047Z,4.50
2018-10-05T09:42:02.335Z,4.63
2018-10-05T09:44:30.592Z,3.30
2018-10-05T09:46:58.905Z,3.47
2018-10-05T09:49:27.171Z,3.93
2018-10-05T09:51:55.468Z,3.60
2018-10-05T09:54:23.608Z,4.13
2018-10-05T09:56:51.964Z,3.90
2018-10-05T09:59:20.881Z,3.83
2018-10-05T10:02:56.111Z,5.07
2018-10-05T10:05:25.010Z,3.50
2018-10-05T10:07:53.620Z,3.87
2018-10-05T10:10:23.115Z,3.50
2018-10-05T10:12:51.857Z,4.57
2018-10-05T10:15:20.358Z,2.80
2018-10-05T10:17:49.069Z,3.70
2018-10-05T10:20:17.926Z,2.97
2018-10-05T10:22:49.213Z,3.10
2018-10-05T10:25:19.048Z,2.90
2018-10-05T10:27:48.295Z,3.10
2018-10-05T10:30:19.232Z,3.90
2018-10-05T10:32:48.335Z,2.83
2018-10-05T10:35:17.738Z,3.63
2018-10-05T10:37:46.115Z,3.60
2018-10-05T10:40:14.993Z,3.90
2018-10-05T10:42:44.151Z,3.50
2018-10-05T10:45:12.980Z,2.90
2018-10-05T10:47:41.658Z,3.20
2018-10-05T10:50:09.860Z,4.20
2018-10-05T10:52:38.303Z,3.40
2018-10-05T10:55:08.283Z,3.50
2018-10-05T10:57:37.214Z,3.43
2018-10-05T11:00:06.131Z,4.10
2018-10-05T11:02:34.527Z,3.70
2018-10-05T11:05:02.888Z,3.43
2018-10-05T11:07:31.853Z,3.83
2018-10-05T11:10:00.062Z,3.70
2018-10-05T11:12:28.447Z,3.60
2018-10-05T11:14:56.739Z,4.00
2018-10-05T11:17:24.978Z,2.73
2018-10-05T11:19:53.853Z,4.37
2018-10-05T11:22:22.457Z,3.73
2018-10-05T11:24:51.208Z,3.63
2018-10-05T11:27:20.397Z,3.27
2018-10-05T11:29:49.509Z,3.90
2018-10-05T11:32:21.568Z,3.07
2018-10-05T11:34:51.836Z,4.00
2018-10-05T11:37:20.177Z,2.90
2018-10-05T11:39:49.413Z,3.17
2018-10-05T11:42:20.337Z,3.00
2018-10-05T11:44:49.305Z,2.97
2018-10-05T11:47:17.628Z,3.13
2018-10-05T11:49:46.925Z,3.00
2018-10-05T11:52:16.543Z,3.00
2018-10-05T11:54:45.840Z,2.50
2018-10-05T11:57:14.816Z,2.53
2018-10-05T11:59:43.727Z,2.73
2018-10-05T12:02:12.230Z,2.60
2018-10-05T12:04:40.575Z,3.00
2018-10-05T12:07:08.815Z,3.20
2018-10-05T12:09:37.543Z,2.90
2018-10-05T12:12:06.420Z,2.33
2018-10-05T12:14:35.103Z,2.97
2018-10-05T12:17:03.368Z,2.50
2018-10-05T12:19:31.594Z,2.77
2018-10-05T12:21:59.836Z,3.00
2018-10-05T12:24:28.034Z,2.50
2018-10-05T12:26:56.251Z,2.83
2018-10-05T12:29:24.534Z,3.17
2018-10-05T12:31:52.863Z,3.30
2018-10-05T12:34:21.441Z,2.73
2018-10-05T12:36:50.197Z,2.37
2018-10-05T12:39:19.212Z,2.47
2018-10-05T12:41:48.023Z,2.73
2018-10-05T12:44:20.066Z,3.07
2018-10-05T12:46:48.944Z,2.70
2018-10-05T12:49:18.381Z,2.60
2018-10-05T12:51:47.439Z,2.83
2018-10-05T12:54:16.558Z,2.53
2018-10-05T12:56:45.033Z,3.03
2018-10-05T12:59:14.712Z,2.30
2018-10-05T13:01:42.989Z,3.40
2018-10-05T13:04:11.200Z,2.43
2018-10-05T13:06:39.440Z,3.40
2018-10-05T13:09:08.573Z,2.73
2018-10-05T13:11:37.632Z,3.10
2018-10-05T13:14:06.635Z,2.70
2018-10-05T13:16:35.002Z,2.80
2018-10-05T13:19:04.347Z,2.97
2018-10-05T13:21:33.957Z,2.50
2018-10-05T13:24:03.323Z,3.27
2018-10-05T13:26:31.586Z,2.70
2018-10-05T13:28:59.867Z,2.70
2018-10-05T13:31:28.137Z,3.03
2018-10-05T13:33:56.377Z,2.60
2018-10-05T13:36:24.913Z,3.03
2018-10-05T13:38:53.125Z,3.10
2018-10-05T13:41:21.797Z,2.87
2018-10-05T13:43:50.648Z,2.90
2018-10-05T13:46:19.472Z,2.80
2018-10-05T13:48:51.182Z,3.47
2018-10-05T13:51:20.298Z,2.77
2018-10-05T13:53:48.810Z,3.47
2018-10-05T13:56:17.585Z,3.10
2018-10-05T13:58:46.330Z,3.30
2018-10-05T14:01:17.754Z,2.80
2018-10-05T14:03:47.200Z,3.20
2018-10-05T14:06:16.384Z,3.10
2018-10-05T14:08:46.936Z,3.30
2018-10-05T14:11:16.556Z,3.20
2018-10-05T14:13:46.549Z,2.83
2018-10-05T14:16:15.849Z,3.00
2018-10-05T14:18:45.635Z,3.03
2018-10-05T14:21:17.452Z,3.30
2018-10-05T14:23:48.564Z,3.00
2018-10-05T14:26:18.458Z,3.40
2018-10-05T14:28:47.538Z,3.53
2018-10-05T14:31:16.704Z,3.30
2018-10-05T14:33:45.904Z,3.57
2018-10-05T14:36:15.251Z,3.40
2018-10-05T14:38:49.121Z,3.77
2018-10-05T14:41:18.979Z,2.50
2018-10-05T14:43:48.161Z,3.27
2018-10-05T14:46:17.526Z,3.50
2018-10-05T14:48:51.335Z,3.63
2018-10-05T14:51:19.984Z,3.03
2018-10-05T14:53:49.159Z,2.53
2018-10-05T14:56:19.682Z,3.20
2018-10-05T14:58:49.125Z,2.43
2018-10-05T15:01:18.747Z,2.90
2018-10-05T15:03:47.882Z,3.00
2018-10-05T15:06:16.914Z,2.90
2018-10-05T15:08:45.549Z,3.37
2018-10-05T15:11:14.927Z,3.47
2018-10-05T15:13:43.630Z,2.87
2018-10-05T15:16:11.863Z,2.90
2018-10-05T15:18:40.319Z,3.60
2018-10-05T15:21:08.742Z,2.50
2018-10-05T15:23:37.716Z,3.43
2018-10-05T15:26:07.055Z,3.00
2018-10-05T15:28:35.940Z,2.50
2018-10-05T15:31:04.409Z,3.90
2018-10-05T15:33:32.749Z,3.07
2018-10-05T15:36:00.973Z,2.73
2018-10-05T15:38:29.284Z,3.40
2018-10-05T15:40:57.526Z,16.93
2018-10-05T15:43:25.830Z,3.80
2018-10-05T15:46:01.112Z,2.77
2018-10-05T15:48:29.377Z,3.00
2018-10-05T15:50:57.599Z,3.63
2018-10-05T15:53:25.956Z,3.57
2018-10-05T15:55:54.759Z,2.97
2018-10-05T15:58:23.143Z,2.90
2018-10-05T16:00:52.585Z,2.83
2018-10-05T16:03:21.212Z,3.47
2018-10-05T16:05:50.156Z,3.43
2018-10-05T16:08:19.363Z,3.57
2018-10-05T16:10:49.956Z,2.67
2018-10-05T16:13:19.132Z,2.30
2018-10-05T16:15:48.133Z,2.70
2018-10-05T16:18:17.213Z,2.70
2018-10-05T16:20:46.189Z,2.67
2018-10-05T16:23:16.703Z,3.20
2018-10-05T16:25:55.319Z,4.30
2018-10-05T16:28:23.697Z,3.43
2018-10-05T16:30:52.030Z,3.47
2018-10-05T16:33:20.541Z,3.70
2018-10-05T16:35:49.239Z,3.50
2018-10-05T16:38:17.717Z,3.40
2018-10-05T16:40:46.457Z,3.60
2018-10-05T16:43:15.669Z,3.47
2018-10-05T16:45:44.389Z,3.53
2018-10-05T16:48:13.651Z,5.10
2018-10-05T16:50:41.956Z,3.77
2018-10-05T16:53:10.308Z,4.37
2018-10-05T16:55:38.871Z,4.17
2018-10-05T16:58:07.573Z,3.83
2018-10-05T17:00:36.143Z,3.90
2018-10-05T17:03:04.564Z,3.50
2018-10-05T17:05:33.103Z,3.97
2018-10-05T17:08:01.355Z,3.70
2018-10-05T17:10:29.684Z,5.03
2018-10-05T17:12:57.966Z,4.83
2018-10-05T17:15:26.274Z,4.00
2018-10-05T17:17:54.637Z,4.97
2018-10-05T17:20:22.888Z,4.87
2018-10-05T17:22:51.441Z,4.30
2018-10-05T17:25:20.064Z,4.30
2018-10-05T17:27:48.752Z,3.43
2018-10-05T17:30:17.589Z,4.73
2018-10-05T17:32:46.128Z,6.23
2018-10-05T17:35:15.066Z,6.33
2018-10-05T17:37:43.885Z,5.70
2018-10-05T17:40:12.449Z,5.37
2018-10-05T17:42:40.693Z,5.27
2018-10-05T17:45:08.973Z,5.10
2018-10-05T17:47:37.221Z,4.70
2018-10-05T17:50:05.760Z,4.97
2018-10-05T17:52:34.347Z,4.40
2018-10-05T17:55:03.108Z,4.70
2018-10-05T17:57:31.401Z,5.07
2018-10-05T17:59:59.646Z,4.90
2018-10-05T18:02:27.858Z,4.93
2018-10-05T18:04:56.176Z,4.63
2018-10-05T18:07:24.570Z,5.30
2018-10-05T18:09:52.804Z,5.47
2018-10-05T18:12:21.285Z,4.90
2018-10-05T18:14:49.732Z,5.47
2018-10-05T18:17:18.254Z,6.00
2018-10-05T18:19:47.093Z,4.80
2018-10-05T18:22:15.963Z,6.37
2018-10-05T18:24:45.431Z,5.65
2018-10-05T18:27:14.052Z,5.95
2018-10-05T18:29:42.846Z,6.30
2018-10-05T18:32:11.575Z,7.33
2018-10-05T18:34:39.869Z,5.80
2018-10-05T18:37:08.160Z,5.97
2018-10-05T18:39:36.786Z,6.78
2018-10-05T18:42:05.287Z,5.67
2018-10-05T18:44:33.720Z,6.40
2018-10-05T18:47:02.157Z,7.03
2018-10-05T18:49:30.402Z,7.17
2018-10-05T18:51:58.817Z,7.47
2018-10-05T18:54:27.320Z,7.80
2018-10-05T18:57:06.977Z,7.10
2018-10-05T18:59:35.353Z,6.10
2018-10-05T19:02:03.817Z,6.17
2018-10-05T19:04:32.241Z,7.25
2018-10-05T19:07:00.716Z,8.90
2018-10-05T19:09:29.310Z,7.53
2018-10-05T19:11:57.690Z,8.23
2018-10-05T19:14:26.046Z,8.55
2018-10-05T19:16:54.710Z,8.78
2018-10-05T19:19:22.934Z,8.58
2018-10-05T19:21:51.438Z,8.40
2018-10-05T19:24:20.205Z,8.45
2018-10-05T19:26:48.903Z,7.95
2018-10-05T19:29:17.617Z,10.28
2018-10-05T19:31:46.398Z,8.85
2018-10-05T19:34:15.346Z,10.40
2018-10-05T19:36:44.274Z,8.15
2018-10-05T19:39:12.813Z,11.10
2018-10-05T19:41:41.600Z,9.83
2018-10-05T19:44:11.005Z,9.20
2018-10-05T19:46:39.769Z,9.43
2018-10-05T19:49:09.000Z,7.10
2018-10-05T19:51:37.512Z,8.30
2018-10-05T19:54:06.276Z,9.78
2018-10-05T19:56:34.707Z,8.40
2018-10-05T19:59:03.306Z,9.68
2018-10-05T20:01:31.890Z,8.63
2018-10-05T20:04:00.394Z,11.03
2018-10-05T20:06:28.879Z,10.30
2018-10-05T20:08:57.618Z,11.20
2018-10-05T20:11:26.232Z,10.82
2018-10-05T20:13:54.670Z,10.13
2018-10-05T20:16:23.122Z,8.68
2018-10-05T20:18:51.614Z,9.20
2018-10-05T20:21:20.499Z,8.88
2018-10-05T20:23:48.958Z,9.08
2018-10-05T20:26:17.527Z,7.87
2018-10-05T20:28:46.263Z,9.30
2018-10-05T20:31:14.712Z,9.63
2018-10-05T20:33:44.380Z,8.70
2018-10-05T20:36:13.446Z,8.35
2018-10-05T20:38:41.684Z,8.90
2018-10-05T20:41:10.063Z,8.33
2018-10-05T20:43:38.672Z,8.78
2018-10-05T20:46:07.223Z,8.60
2018-10-05T20:48:35.738Z,9.38
2018-10-05T20:51:04.829Z,9.40
2018-10-05T20:53:33.087Z,8.28
2018-10-05T20:56:01.369Z,7.85
2018-10-05T20:58:29.625Z,8.40
2018-10-05T21:00:57.896Z,8.28
2018-10-05T21:03:26.160Z,10.32
2018-10-05T21:05:54.434Z,9.03
2018-10-05T21:08:22.694Z,9.28
2018-10-05T21:10:51.510Z,8.98
2018-10-05T21:13:19.913Z,8.25
2018-10-05T21:15:48.470Z,9.08
2018-10-05T21:18:16.950Z,9.33
2018-10-05T21:20:46.013Z,10.13
2018-10-05T21:23:14.673Z,10.28
2018-10-05T21:25:43.257Z,9.10
2018-10-05T21:28:12.759Z,10.40
2018-10-05T21:30:41.134Z,10.85
2018-10-05T21:33:09.621Z,11.53
2018-10-05T21:35:38.242Z,12.88
2018-10-05T21:38:07.335Z,12.85
2018-10-05T21:40:36.219Z,11.97
2018-10-05T21:43:05.241Z,14.45
2018-10-05T21:45:36.688Z,13.65
2018-10-05T21:48:05.619Z,12.25
2018-10-05T21:50:34.211Z,13.58
2018-10-05T21:53:02.697Z,13.50
2018-10-05T21:55:31.377Z,14.23
2018-10-05T21:57:59.960Z,15.45
2018-10-05T22:00:32.620Z,14.35
2018-10-05T22:03:01.224Z,12.93
2018-10-05T22:05:29.635Z,10.35
2018-10-05T22:07:58.167Z,11.68
2018-10-05T22:10:26.562Z,12.37
2018-10-05T22:12:54.923Z,12.58
2018-10-05T22:15:23.889Z,14.70
2018-10-05T22:17:52.507Z,12.95
2018-10-05T22:20:21.656Z,11.12
2018-10-05T22:22:50.232Z,10.00
2018-10-05T22:25:20.080Z,8.63
2018-10-05T22:27:48.842Z,6.70
2018-10-05T22:30:18.771Z,7.40
2018-10-05T22:32:47.757Z,7.95
2018-10-05T22:35:17.794Z,8.23
2018-10-05T22:37:47.305Z,8.90
2018-10-05T22:40:16.365Z,10.03
2018-10-05T22:42:46.368Z,9.60
2018-10-05T22:45:16.245Z,10.40
2018-10-05T22:47:45.446Z,8.70
2018-10-05T22:50:14.434Z,8.23
2018-10-05T22:52:46.104Z,8.65
2018-10-05T22:55:15.433Z,6.67
2018-10-05T22:57:44.837Z,8.73
2018-10-05T23:00:13.773Z,7.20
2018-10-05T23:02:42.489Z,9.28
2018-10-05T23:05:11.013Z,7.67
2018-10-05T23:07:39.441Z,7.58
2018-10-05T23:10:09.178Z,8.40
2018-10-05T23:12:37.918Z,8.98
2018-10-05T23:15:06.664Z,9.63
2018-10-05T23:17:37.901Z,8.15
2018-10-05T23:20:06.330Z,7.58
2018-10-05T23:22:34.848Z,7.33
2018-10-05T23:25:03.223Z,7.90
2018-10-05T23:27:31.501Z,8.40
2018-10-05T23:29:59.722Z,8.00
2018-10-05T23:32:28.030Z,8.10
2018-10-05T23:34:56.386Z,7.47
2018-10-05T23:37:24.671Z,8.38
2018-10-05T23:39:53.144Z,6.95
2018-10-05T23:42:22.103Z,7.33
2018-10-05T23:44:51.505Z,6.92
2018-10-05T23:47:20.265Z,7.40
2018-10-05T23:49:49.941Z,8.88
2018-10-05T23:52:47.500Z,8.75
2018-10-05T23:55:17.916Z,7.33
2018-10-05T23:57:47.573Z,6.50
